Home   Weather   USA   Denison   Past weeks
Flag for USA

Past Weather in Denison, Texas, USA — Yesterday and Last 2 Weeks

Currently: 66 °F. Sunny. (Weather station: Grayson County Airport, USA). See more current weather

Past Weather in Denison — Graph

°F

Denison Temperature Yesterday

Maximum temperature yesterday: 77 °F (at 1:50 pm)
Minimum temperature yesterday: 44 °F (at 3:35 am)
Average temperature yesterday: 59 °F

High & Low Weather Summary for the Past Weeks

 TemperatureHumidityPressure
High77 °F (Feb 23, 1:50 pm)100% (Feb 10, 11:50 am)30.53 "Hg (Feb 10, 11:50 am)
Low-4 °F (Feb 16, 5:55 am)21% (Feb 22, 2:50 pm)29.81 "Hg (Feb 24, 3:15 am)
Average30 °F75%30.21 "Hg
* Reported Feb 9 3:50 pm — Feb 24 3:50 pm, Denison. Weather by CustomWeather, © 2021

Note: Actual official high and low records may vary slightly from our data, if they occured in-between our weather recording intervals... More about our weather records

Denison Weather History for the Previous 24 Hours

Scroll right to see more
 ConditionsComfort  
Time TempWeatherWind HumidityBarometerVisibility
3:50 pm
Wed, Feb 24
68 °FSunny.14 mph35%30.04 "Hg10 mi
2:50 pm70 °FSunny.15 mph35%30.02 "Hg10 mi
1:50 pm70 °FSunny.16 mph35%30.02 "Hg10 mi
12:50 pm66 °FSunny.15 mph43%30.03 "Hg10 mi
11:50 am66 °FSunny.17 mph43%30.03 "Hg10 mi
10:50 am63 °FSunny.10 mph45%30.00 "Hg10 mi
9:50 am63 °FSunny.9 mph59%29.96 "Hg10 mi
8:50 am61 °FSunny.13 mph77%29.94 "Hg10 mi
7:50 am57 °FSunny.13 mph88%29.90 "Hg10 mi
6:50 am55 °FClear.15 mph94%29.86 "Hg10 mi
6:15 am57 °FClear.16 mph86%29.86 "Hg10 mi
5:55 am57 °FClear.16 mph83%29.85 "Hg10 mi
5:35 am58 °FClear.17 mph82%29.85 "Hg10 mi
5:15 am58 °FClear.18 mph80%29.84 "Hg10 mi
4:55 am59 °FClear.18 mph77%29.83 "Hg10 mi
4:35 am59 °FClear.20 mph75%29.82 "Hg10 mi
4:15 am60 °FClear.22 mph73%29.82 "Hg10 mi
3:55 am60 °FClear.22 mph70%29.82 "Hg10 mi
3:35 am60 °FClear.21 mph69%29.81 "Hg10 mi
3:15 am61 °FClear.22 mph67%29.81 "Hg10 mi
2:55 am61 °FClear.23 mph66%29.82 "Hg10 mi
2:35 am62 °FClear.24 mph64%29.83 "Hg10 mi
2:15 am62 °FClear.22 mph63%29.83 "Hg10 mi
1:55 am63 °FClear.23 mph63%29.83 "Hg10 mi
1:35 am63 °FClear.23 mph62%29.84 "Hg10 mi
1:15 am64 °FClear.25 mph61%29.84 "Hg10 mi
12:55 am64 °FClear.22 mph62%29.84 "Hg10 mi
12:35 am64 °FClear.20 mph60%29.84 "Hg10 mi
12:15 am66 °FClear.17 mph57%29.83 "Hg10 mi
11:55 pm
Tue, Feb 23
66 °FClear.22 mph56%29.83 "Hg10 mi
11:35 pm66 °FClear.23 mph58%29.83 "Hg10 mi
11:15 pm66 °FClear.20 mph59%29.84 "Hg10 mi
10:55 pm65 °FClear.20 mph61%29.84 "Hg10 mi
10:35 pm65 °FClear.17 mph62%29.84 "Hg10 mi
10:15 pm65 °FClear.18 mph62%29.84 "Hg10 mi
9:55 pm65 °FClear.17 mph62%29.84 "Hg10 mi
9:35 pm65 °FClear.17 mph61%29.83 "Hg10 mi
9:15 pm66 °FClear.17 mph60%29.83 "Hg10 mi
8:55 pm66 °FClear.16 mph59%29.83 "Hg10 mi
8:35 pm65 °FClear.15 mph57%29.83 "Hg10 mi
8:15 pm66 °FClear.13 mph52%29.83 "Hg10 mi
7:35 pm68 °FClear.14 mph46%29.82 "Hg10 mi
7:15 pm69 °FClear.15 mph44%29.82 "Hg10 mi
6:50 pm70 °FClear.18 mph43%29.82 "Hg10 mi
5:50 pm73 °FSunny.20 mph38%29.92 "Hg10 mi
Weather by CustomWeather, © 2021

See weather overview